Bowman Field

Current Flights

Departures
Number Departure To Airline
Arrivals
Number Arrival From Airline
 N81CH 14:41  Greenville-Spartanburg  National Airlines
Info
Name: Bowman Field
Identifier:  LOU/KLOU
Local Time:  19. May 14:39
City
Flights per Day
4 flights
Distance: 512km (318mi)
Punctuality
90% (0 flights per day delayed)
Delay Average: 48 minutes
Current Weather
 24 C (Humidity: 64%)
  12kt (22km/h / 13mph) from 170°
18 knots Gusts

  Broken clouds at 9,000 feet (2,743 meter)
  Overcast at 11,000 feet (3,352 meter)
  16km (10 mi.)
 METAR KLOU 191353Z 17012G18KT 10SM BKN090 OVC110 24/17 A2986 RMK AO2 SLP105 T02390167

Current Delays

Departures
N/A
Arrivals
N/A

Destinations

Top Destinations
Airport Flights
per week
Seats
per week
  Greenville-Spartanburg (GSP) <1 - 0 0
  Lexington (LEX) <1 - 0 0
  Bloomington (BMG) <1 - 0 0
  Chattanooga (CHA) <1 - 0 0
  Abingdon (VJI) <1 - 0 0

Airlines & Planes

Top Airlines
Airline Flights
per Day
Seats
per Day
  Flybe Nordic 1 -
Jet Charter Inc ( Franklin Lakes Nj ) 1 -
  Novair 1 -
Nordwind Airlines 1 -
  National Airlines 1 -
  Nolinor Aviation <1 -
  Centennial Airlines <1 -
Gama Aviation <1 -
KaiserAir <1 -
Top Plane Types
Manufacturer Model Flights Seats
Pilatus PC-12 0.9/day - 0
Beech E90 King Air 0.7/day - 0
Cirrus SR22 0.6/day - 0
Cessna C172 0.5/day - 0
Beech 58 0.4/day - 0
Cessna C560 0.2/day - 0